Time;durP1;ratioP1;P1;durP2;ratioP2;P2;SDS_P1;SDS_P2;PMS_P1;PMS_P2;Temp;Humidity;BMP_temperature;BMP_pressure;BME280_temperature;BME280_humidity;BME280_pressure;Samples;Min_cycle;Max_cycle;Signal;HPM_P1;HPM_P2
2022/03/11 00:01:24;;;;;;;4.55;2.88;;;;;;;7.38;45.62;101551.81;5004422;28;20069;-71
2022/03/11 00:03:50;;;;;;;6.60;3.65;;;;;;;7.27;45.92;101552.38;4995188;28;20042;-71
2022/03/11 00:06:17;;;;;;;5.13;2.90;;;;;;;7.39;45.58;101548.28;5005745;28;20747;-73
2022/03/11 00:08:44;;;;;;;6.93;3.45;;;;;;;7.39;45.59;101550.91;5002160;28;20119;-71
2022/03/11 00:11:11;;;;;;;5.90;2.78;;;;;;;7.28;45.41;101553.22;4997887;28;20042;-71
2022/03/11 00:13:37;;;;;;;3.97;2.72;;;;;;;7.22;46.09;101548.31;5004482;28;20046;-71
2022/03/11 00:16:06;;;;;;;4.57;2.35;;;;;;;7.19;46.99;101541.50;5001753;28;20120;-72
2022/03/11 00:18:33;;;;;;;7.63;3.03;;;;;;;7.16;46.46;101551.28;5003552;28;20125;-71
2022/03/11 00:20:59;;;;;;;5.47;2.88;;;;;;;7.32;45.50;101552.16;5042407;28;20041;-73
2022/03/11 00:23:26;;;;;;;7.18;2.88;;;;;;;7.35;45.68;101555.44;5036942;28;20127;-70
2022/03/11 00:25:54;;;;;;;5.25;2.97;;;;;;;7.32;45.84;101552.16;5015072;28;20045;-72
2022/03/11 00:28:21;;;;;;;6.32;3.15;;;;;;;7.37;45.89;101555.34;5010087;28;20076;-73
2022/03/11 00:30:47;;;;;;;5.40;2.88;;;;;;;7.22;45.68;101556.16;5009598;28;20701;-71
2022/03/11 00:33:15;;;;;;;4.80;3.10;;;;;;;7.34;45.84;101555.53;5044989;28;20509;-71
2022/03/11 00:35:42;;;;;;;5.20;2.92;;;;;;;7.41;45.70;101544.66;5044404;28;20077;-73
2022/03/11 00:38:09;;;;;;;6.05;3.45;;;;;;;7.57;44.98;101550.75;5002105;28;20096;-72
2022/03/11 00:40:36;;;;;;;7.25;2.78;;;;;;;7.72;44.84;101546.47;5012483;28;20053;-71
2022/03/11 00:43:03;;;;;;;9.77;3.55;;;;;;;7.67;44.60;101553.72;5010422;28;20049;-71
2022/03/11 00:45:30;;;;;;;9.15;3.08;;;;;;;7.71;44.42;101536.94;5005800;28;20054;-73
2022/03/11 00:47:56;;;;;;;3.28;2.35;;;;;;;7.75;43.82;101535.84;5034437;28;20485;-70
2022/03/11 00:50:25;;;;;;;7.32;3.15;;;;;;;7.61;44.14;101541.81;5038953;28;20049;-70
2022/03/11 00:52:52;;;;;;;3.33;2.30;;;;;;;7.67;44.19;101532.81;5013094;28;20947;-71
2022/03/11 00:55:19;;;;;;;3.90;2.50;;;;;;;7.65;44.15;101534.66;5042530;28;20042;-70
2022/03/11 00:57:45;;;;;;;5.45;3.42;;;;;;;7.56;44.58;101540.38;5009419;28;20076;-70
2022/03/11 01:00:14;;;;;;;5.38;2.58;;;;;;;7.65;44.61;101527.63;5008897;28;20124;-71
2022/03/11 01:02:41;;;;;;;4.05;1.92;;;;;;;7.80;44.14;101507.66;5007038;28;20056;-71
2022/03/11 01:05:09;;;;;;;5.75;2.72;;;;;;;7.65;44.34;101517.19;5001864;28;20037;-71
2022/03/11 01:07:38;;;;;;;5.70;2.95;;;;;;;7.81;43.62;101519.81;5012567;28;20125;-70
2022/03/11 01:10:06;;;;;;;4.93;2.33;;;;;;;7.85;43.37;101503.00;5022083;28;20033;-70
2022/03/11 01:12:33;;;;;;;6.78;3.25;;;;;;;7.84;44.13;101511.81;5011022;28;20046;-70
2022/03/11 01:15:00;;;;;;;5.03;2.95;;;;;;;7.80;43.62;101507.66;5009594;28;20040;-72
2022/03/11 01:17:26;;;;;;;3.67;2.63;;;;;;;7.75;43.95;101499.22;5009671;28;20038;-72
2022/03/11 01:19:53;;;;;;;8.50;2.85;;;;;;;7.61;44.56;101504.34;5007760;28;20061;-73
2022/03/11 01:22:20;;;;;;;5.82;3.42;;;;;;;7.55;44.31;101502.09;5009542;28;20069;-71
2022/03/11 01:24:49;;;;;;;8.60;3.30;;;;;;;7.57;44.52;101501.06;5008247;28;20042;-71
2022/03/11 01:27:17;;;;;;;6.03;3.00;;;;;;;7.60;43.94;101494.81;5003242;28;20037;-71
2022/03/11 01:29:44;;;;;;;4.70;2.75;;;;;;;7.55;43.79;101491.63;5033468;28;20045;-72
2022/03/11 01:32:11;;;;;;;6.80;4.03;;;;;;;7.55;44.20;101492.47;4999052;28;20123;-70
2022/03/11 01:34:37;;;;;;;5.78;2.65;;;;;;;7.50;44.49;101488.44;5006652;28;20053;-71
2022/03/11 01:37:05;;;;;;;5.25;2.88;;;;;;;7.33;45.03;101489.34;5035211;28;20065;-70
2022/03/11 01:39:31;;;;;;;4.40;2.63;;;;;;;7.48;44.18;101485.06;4999100;28;20057;-71
2022/03/11 01:41:59;;;;;;;7.75;3.35;;;;;;;7.44;44.20;101478.28;5007646;28;20049;-70
2022/03/11 01:44:26;;;;;;;4.95;2.45;;;;;;;7.25;44.80;101475.00;5010334;28;20068;-71
2022/03/11 01:46:53;;;;;;;4.63;3.20;;;;;;;7.16;45.34;101467.66;5007608;28;20041;-71
2022/03/11 01:49:21;;;;;;;6.20;3.10;;;;;;;7.21;44.79;101465.63;5005816;28;20045;-71
2022/03/11 01:51:48;;;;;;;5.40;2.92;;;;;;;7.14;44.98;101464.28;5018616;28;20046;-71
2022/03/11 01:54:15;;;;;;;4.10;2.58;;;;;;;7.27;44.89;101465.28;5010639;28;20131;-70
2022/03/11 01:56:42;;;;;;;6.45;3.30;;;;;;;7.27;45.33;101455.69;5013989;28;20045;-71
2022/03/11 01:59:11;;;;;;;5.60;3.17;;;;;;;7.21;44.57;101453.44;5008893;28;20564;-70
2022/03/11 02:01:38;;;;;;;6.18;3.80;;;;;;;7.07;45.48;101457.69;5008576;28;20033;-71
2022/03/11 02:04:05;;;;;;;5.82;2.95;;;;;;;7.08;45.44;101443.72;5008712;28;20041;-70
2022/03/11 02:06:32;;;;;;;4.70;2.38;;;;;;;7.04;45.59;101450.00;5005308;28;20061;-71
2022/03/11 02:09:01;;;;;;;5.95;3.22;;;;;;;6.91;46.33;101451.59;5008402;28;20053;-71
2022/03/11 02:11:28;;;;;;;3.97;2.33;;;;;;;6.90;45.50;101449.06;5011282;28;20048;-70
2022/03/11 02:13:56;;;;;;;5.43;2.67;;;;;;;6.81;45.94;101450.41;5010336;28;20052;-72
2022/03/11 02:16:25;;;;;;;3.13;2.13;;;;;;;6.80;46.40;101443.47;5014542;28;20048;-69
2022/03/11 02:18:52;;;;;;;5.63;3.20;;;;;;;6.82;46.04;101448.63;5012031;28;20105;-70
2022/03/11 02:21:20;;;;;;;7.65;3.05;;;;;;;6.78;46.24;101444.50;5011029;28;20425;-71
2022/03/11 02:23:53;;;;;;;3.75;2.28;;;;;;;6.81;46.16;101442.56;5046427;28;20034;-70
2022/03/11 02:26:21;;;;;;;7.55;3.13;;;;;;;6.69;46.68;101439.75;5008782;28;20046;-73
2022/03/11 02:28:49;;;;;;;5.03;3.05;;;;;;;6.93;45.16;101428.88;5004407;28;20038;-70
2022/03/11 02:31:16;;;;;;;5.40;2.35;;;;;;;7.01;45.80;101424.09;5007055;28;20041;-69
2022/03/11 02:33:43;;;;;;;6.93;2.95;;;;;;;7.15;45.20;101418.94;5019974;28;20044;-71
2022/03/11 02:36:10;;;;;;;3.42;1.70;;;;;;;7.13;44.99;101425.19;5039970;28;20053;-71
2022/03/11 02:38:38;;;;;;;4.63;2.72;;;;;;;7.14;44.98;101412.03;5039342;28;20057;-72
2022/03/11 02:41:09;;;;;;;4.57;2.65;;;;;;;7.16;44.85;101420.63;5024394;28;20049;-69
2022/03/11 02:43:36;;;;;;;5.00;2.58;;;;;;;7.02;45.61;101411.84;5006517;28;20069;-71
2022/03/11 02:46:02;;;;;;;6.15;2.83;;;;;;;6.89;45.28;101416.88;5004175;28;20717;-72
2022/03/11 02:48:29;;;;;;;9.65;3.42;;;;;;;6.76;46.67;101420.22;5010479;28;20068;-72
2022/03/11 02:50:56;;;;;;;3.42;1.83;;;;;;;6.81;46.16;101421.69;5017731;28;20045;-70
2022/03/11 02:53:23;;;;;;;5.15;2.85;;;;;;;6.86;45.93;101411.81;5005172;28;20045;-71
2022/03/11 02:55:49;;;;;;;3.20;2.13;;;;;;;6.90;45.95;101410.75;5006693;28;20127;-70
2022/03/11 02:58:17;;;;;;;13.38;2.45;;;;;;;6.93;45.81;101407.97;5007474;28;20049;-72
2022/03/11 03:00:44;;;;;;;3.42;2.03;;;;;;;6.97;45.98;101419.94;5006960;28;20515;-70
2022/03/11 03:03:11;;;;;;;8.00;2.67;;;;;;;6.83;46.39;101412.00;5033493;28;20137;-72
2022/03/11 03:05:38;;;;;;;3.80;2.33;;;;;;;6.69;46.19;101414.47;5003858;28;20046;-71
2022/03/11 03:08:05;;;;;;;3.38;2.05;;;;;;;6.84;46.09;101415.44;5003874;28;20051;-70
2022/03/11 03:10:32;;;;;;;5.30;2.40;;;;;;;6.82;46.43;101404.22;5001661;28;20250;-69
2022/03/11 03:12:59;;;;;;;7.47;2.83;;;;;;;6.84;46.39;101402.38;5010018;28;20042;-69
2022/03/11 03:15:27;;;;;;;6.28;2.60;;;;;;;6.91;46.10;101394.16;5008846;28;20050;-70
2022/03/11 03:17:53;;;;;;;4.68;2.30;;;;;;;6.81;46.25;101398.19;5007809;28;20079;-70
2022/03/11 03:20:20;;;;;;;5.07;2.40;;;;;;;6.93;46.20;101387.09;5011881;28;20052;-71
2022/03/11 03:22:47;;;;;;;2.58;1.67;;;;;;;6.74;46.62;101386.38;5031963;28;20089;-68
2022/03/11 03:25:13;;;;;;;4.55;2.88;;;;;;;6.68;47.06;101381.50;5018433;28;20038;-71
2022/03/11 03:27:40;;;;;;;3.35;2.28;;;;;;;6.76;46.67;101384.53;5010267;28;20052;-71
2022/03/11 03:30:07;;;;;;;4.18;2.00;;;;;;;6.79;46.81;101383.53;5006648;28;20061;-70
2022/03/11 03:32:35;;;;;;;3.95;2.22;;;;;;;6.71;47.18;101388.31;5007385;28;20185;-70
2022/03/11 03:35:02;;;;;;;1.95;1.63;;;;;;;6.72;46.88;101383.00;5010506;28;20069;-70
2022/03/11 03:37:28;;;;;;;4.60;2.60;;;;;;;6.80;47.11;101385.22;5006976;28;20131;-71
2022/03/11 03:39:55;;;;;;;5.53;2.75;;;;;;;6.74;47.05;101391.59;5004840;28;20435;-70
2022/03/11 03:42:22;;;;;;;6.53;3.35;;;;;;;6.65;47.83;101389.47;5008134;28;20041;-70
2022/03/11 03:44:49;;;;;;;4.85;2.20;;;;;;;6.51;48.05;101386.75;5008662;28;20136;-70
2022/03/11 03:47:15;;;;;;;2.05;1.30;;;;;;;6.62;47.97;101394.84;5003265;28;20050;-71
2022/03/11 03:49:43;;;;;;;6.78;2.65;;;;;;;6.61;47.78;101384.50;5005918;28;20099;-69
2022/03/11 03:52:12;;;;;;;6.18;2.95;;;;;;;6.52;48.87;101400.63;5005514;28;20049;-71
2022/03/11 03:54:39;;;;;;;2.50;1.80;;;;;;;6.45;48.72;101384.44;5009180;28;20052;-71
2022/03/11 03:57:06;;;;;;;8.90;2.92;;;;;;;6.41;48.77;101395.97;5006469;28;20047;-71
2022/03/11 03:59:33;;;;;;;4.20;2.30;;;;;;;6.41;49.27;101388.16;5009502;28;20056;-69
2022/03/11 04:02:00;;;;;;;4.82;2.78;;;;;;;6.50;48.78;101387.66;5010081;28;20547;-71
2022/03/11 04:04:26;;;;;;;4.35;2.33;;;;;;;6.49;49.10;101391.19;5007673;28;20046;-70
2022/03/11 04:06:54;;;;;;;3.42;2.50;;;;;;;6.60;49.04;101388.03;5008740;28;20390;-72
2022/03/11 04:09:21;;;;;;;5.70;3.05;;;;;;;6.57;48.97;101383.81;4999649;28;20070;-69
2022/03/11 04:11:48;;;;;;;5.30;2.97;;;;;;;6.49;49.13;101385.97;5036404;28;20041;-71
2022/03/11 04:14:14;;;;;;;3.13;2.22;;;;;;;6.40;49.71;101383.84;5011700;28;20080;-69
2022/03/11 04:16:41;;;;;;;4.70;2.80;;;;;;;6.42;49.87;101388.97;4999297;28;20041;-73
2022/03/11 04:19:07;;;;;;;5.13;2.88;;;;;;;6.39;49.71;101384.75;5006257;28;20049;-70
2022/03/11 04:21:35;;;;;;;5.03;2.67;;;;;;;6.41;49.82;101380.31;5010709;28;20104;-69
2022/03/11 04:24:04;;;;;;;10.38;2.53;;;;;;;6.36;50.25;101390.13;5011894;28;20049;-70
2022/03/11 04:26:31;;;;;;;5.90;2.72;;;;;;;6.47;49.89;101382.59;5006549;28;20054;-69
2022/03/11 04:28:57;;;;;;;3.80;2.75;;;;;;;6.42;50.19;101379.41;5009423;28;20116;-70
2022/03/11 04:31:25;;;;;;;4.90;2.97;;;;;;;6.46;49.77;101390.53;5002667;28;20080;-71
2022/03/11 04:33:51;;;;;;;4.25;2.90;;;;;;;6.36;50.42;101390.13;5005951;28;20114;-71
2022/03/11 04:36:18;;;;;;;5.43;2.88;;;;;;;6.38;50.41;101392.69;5009853;28;20053;-71
2022/03/11 04:38:45;;;;;;;4.63;2.53;;;;;;;6.44;49.77;101379.31;5013460;28;20053;-70
2022/03/11 04:44:32;;;;;;;4.85;2.60;;;;;;;6.42;50.74;101384.63;5073730;27;20380;-70
2022/03/11 04:47:00;;;;;;;5.05;2.65;;;;;;;6.32;50.46;101384.31;5067309;28;20048;-68
2022/03/11 04:49:27;;;;;;;4.65;2.78;;;;;;;6.39;50.64;101386.53;5068616;28;20058;-70
2022/03/11 04:51:53;;;;;;;5.65;2.08;;;;;;;6.30;51.39;101391.38;5070614;28;20161;-71
2022/03/11 04:54:21;;;;;;;3.72;2.28;;;;;;;6.19;51.88;101385.88;5069557;28;20036;-70
2022/03/11 04:56:47;;;;;;;5.65;2.88;;;;;;;6.27;50.75;101381.94;5065728;28;20050;-69
2022/03/11 04:59:14;;;;;;;4.35;2.58;;;;;;;6.23;51.34;101387.41;5072962;28;20052;-72
2022/03/11 05:01:42;;;;;;;5.07;2.63;;;;;;;6.14;51.79;101387.84;5067260;28;20568;-74
